Strona główna
METAR-TAF:

METAR-TAF

Lotnisko :

Villacoublay, Francja

Szerokość geograficzna: 48-46N, Długość geograficzna: 002-12E, wysokość: 177 m

Aktualna obserwacja pogody

Raport powstał 38 minut temu, godzina 03:30 UTC
Wiatr 4 kt od zachodnio-północny zachód
Temperatura 17°C
Wilgotność 94%
Ciśnienie 1015 hPa
Widzialność 10 km lub więcej
Przerywane chmury na wysokości 2200 ft
Przerywane chmury na wysokości 2700 ft

METAR: LFPV 150330Z AUTO 29004KT 9999 BKN022 BKN027 17/16 Q1015 TEMPO BKN007

czas: 06:08 (04:08 UTC)

Prognoza

Raport powstał 2 godziny i 8 minut temu, godzina 02:00 UTC
Prognoza ważna od 15 godzina 03 UTC do 16 godzina 03 UTC
Wiatr 5 kt od zachodnio-północny zachód
Widzialność 10 km lub więcej
Mało chmury na wysokości 2000 ft
Przerywane chmury na wysokości 6500 ft
Przejściowo
od 15 godzina 03 UTC do 15 godzina 07 UTC
Przerywane chmury na wysokości 700 ft

TAF: LFPV 150200Z 1503/1603 29005KT 9999 FEW020 BKN065 TEMPO 1503/1507 BKN007

Obserwacja i prognoza pogody dla ponad 4000 lotnisk (raport METAR i TAF).

Dostępne stacje oznaczono żółtymi i czerwonymi punktami na mapie.

Najedź kursorem aby zobaczyć nazwę stacji.

Kliknij aby zobaczyć obserwacje i prognozy pogody.

Aby zmienić mapę: kliknij na zielony przycisk z czarnym krzyżykiem, aby powiększyć; na zielony przycisk z myślnikiem, aby pomniejszyć; na zielone strzałki, aby przejść do map sąsiednich.


METAR-TAF: